Terminal Aerodrome Forecast
Issued by NWS Des Moines, IA

Home | Current Version | Previous Version | Text Only | Print | Product List | Glossary On
Versions: 1 2 3 4 5 6 7 8 9 10 11 12 13 14 15
000
FTUS43 KDMX 271139
TAFDSM
TAF
KDSM 271139Z 2712/2812 06003KT 1/2SM FG VV004
     FM271300 10004KT P6SM SCT012
     FM271700 11006KT P6SM VCTS BKN050CB
     FM272100 05007KT P6SM BKN060
     FM280200 01006KT P6SM BKN060
     FM280600 32006KT P6SM BKN035=

USA.gov is the U.S. government's official web portal to all federal, state and local government web resources and services.